sensor_id;sensor_type;location;lat;lon;timestamp;temperature;humidity
18648;DHT22;9453;50.294;18.644;2023-05-13T04:00:55;12.40;69.90
18648;DHT22;9453;50.294;18.644;2023-05-13T04:03:22;12.40;70.00
18648;DHT22;9453;50.294;18.644;2023-05-13T04:05:50;12.40;70.20
18648;DHT22;9453;50.294;18.644;2023-05-13T04:08:17;12.40;70.80
18648;DHT22;9453;50.294;18.644;2023-05-13T04:10:44;12.40;70.10
18648;DHT22;9453;50.294;18.644;2023-05-13T04:13:11;12.50;70.20
18648;DHT22;9453;50.294;18.644;2023-05-13T04:15:39;12.50;70.20
18648;DHT22;9453;50.294;18.644;2023-05-13T04:18:07;12.60;70.10
18648;DHT22;9453;50.294;18.644;2023-05-13T04:20:36;12.60;70.10
18648;DHT22;9453;50.294;18.644;2023-05-13T04:23:04;12.50;70.00
18648;DHT22;9453;50.294;18.644;2023-05-13T04:25:31;12.60;70.10
18648;DHT22;9453;50.294;18.644;2023-05-13T04:27:58;12.60;70.60
18648;DHT22;9453;50.294;18.644;2023-05-13T04:30:25;12.60;70.10
18648;DHT22;9453;50.294;18.644;2023-05-13T04:32:52;12.60;70.50
18648;DHT22;9453;50.294;18.644;2023-05-13T04:35:20;12.50;70.60
18648;DHT22;9453;50.294;18.644;2023-05-13T04:37:47;12.50;70.80
18648;DHT22;9453;50.294;18.644;2023-05-13T04:40:15;12.50;71.00
18648;DHT22;9453;50.294;18.644;2023-05-13T04:42:42;12.50;71.20
18648;DHT22;9453;50.294;18.644;2023-05-13T04:45:09;12.50;71.50
18648;DHT22;9453;50.294;18.644;2023-05-13T04:47:37;12.50;71.70
18648;DHT22;9453;50.294;18.644;2023-05-13T04:50:04;12.50;72.30
18648;DHT22;9453;50.294;18.644;2023-05-13T04:52:33;12.50;72.80
18648;DHT22;9453;50.294;18.644;2023-05-13T04:55:02;12.50;72.90
18648;DHT22;9453;50.294;18.644;2023-05-13T04:57:28;12.60;73.30
18648;DHT22;9453;50.294;18.644;2023-05-13T04:59:55;12.50;73.80
18648;DHT22;9453;50.294;18.644;2023-05-13T05:02:22;12.60;74.00
18648;DHT22;9453;50.294;18.644;2023-05-13T05:04:49;12.60;74.50
18648;DHT22;9453;50.294;18.644;2023-05-13T05:07:16;12.70;74.80
18648;DHT22;9453;50.294;18.644;2023-05-13T05:09:45;12.70;74.50
18648;DHT22;9453;50.294;18.644;2023-05-13T05:12:12;12.80;74.60
18648;DHT22;9453;50.294;18.644;2023-05-13T05:14:39;12.90;74.50
18648;DHT22;9453;50.294;18.644;2023-05-13T05:17:06;12.90;74.30
18648;DHT22;9453;50.294;18.644;2023-05-13T05:19:33;12.90;74.50
18648;DHT22;9453;50.294;18.644;2023-05-13T05:22:00;13.00;74.50
18648;DHT22;9453;50.294;18.644;2023-05-13T05:24:27;13.00;74.60
18648;DHT22;9453;50.294;18.644;2023-05-13T05:26:56;13.00;74.80
18648;DHT22;9453;50.294;18.644;2023-05-13T05:29:23;13.00;74.20
18648;DHT22;9453;50.294;18.644;2023-05-13T05:31:50;13.00;74.40
18648;DHT22;9453;50.294;18.644;2023-05-13T05:34:17;13.10;74.40
18648;DHT22;9453;50.294;18.644;2023-05-13T05:36:44;13.20;73.90
18648;DHT22;9453;50.294;18.644;2023-05-13T05:39:11;13.30;74.10
18648;DHT22;9453;50.294;18.644;2023-05-13T05:41:38;13.50;73.90
18648;DHT22;9453;50.294;18.644;2023-05-13T05:44:07;13.60;73.70
18648;DHT22;9453;50.294;18.644;2023-05-13T05:46:34;13.90;73.50
18648;DHT22;9453;50.294;18.644;2023-05-13T05:49:01;14.00;72.90
18648;DHT22;9453;50.294;18.644;2023-05-13T05:51:28;14.20;72.40
18648;DHT22;9453;50.294;18.644;2023-05-13T05:53:55;14.30;71.80
18648;DHT22;9453;50.294;18.644;2023-05-13T05:56:22;14.40;71.20
18648;DHT22;9453;50.294;18.644;2023-05-13T05:58:49;14.50;71.20
18648;DHT22;9453;50.294;18.644;2023-05-13T06:01:18;14.70;70.80
18648;DHT22;9453;50.294;18.644;2023-05-13T06:03:45;14.70;70.20
18648;DHT22;9453;50.294;18.644;2023-05-13T06:06:12;14.70;70.10
18648;DHT22;9453;50.294;18.644;2023-05-13T06:08:39;14.80;70.20
18648;DHT22;9453;50.294;18.644;2023-05-13T06:11:06;14.90;70.20
18648;DHT22;9453;50.294;18.644;2023-05-13T06:13:33;15.00;70.10
18648;DHT22;9453;50.294;18.644;2023-05-13T06:16:00;15.10;70.00
18648;DHT22;9453;50.294;18.644;2023-05-13T06:18:28;15.40;70.00
18648;DHT22;9453;50.294;18.644;2023-05-13T06:20:55;15.50;69.40
18648;DHT22;9453;50.294;18.644;2023-05-13T06:23:22;15.60;69.40
18648;DHT22;9453;50.294;18.644;2023-05-13T06:25:49;15.80;69.10
18648;DHT22;9453;50.294;18.644;2023-05-13T06:28:16;16.00;68.40
18648;DHT22;9453;50.294;18.644;2023-05-13T06:30:44;16.00;67.70
18648;DHT22;9453;50.294;18.644;2023-05-13T06:33:11;16.10;67.70
18648;DHT22;9453;50.294;18.644;2023-05-13T06:35:39;16.20;67.60
18648;DHT22;9453;50.294;18.644;2023-05-13T06:38:07;16.10;66.90
18648;DHT22;9453;50.294;18.644;2023-05-13T06:40:34;16.20;66.70
18648;DHT22;9453;50.294;18.644;2023-05-13T06:43:01;16.20;66.90
18648;DHT22;9453;50.294;18.644;2023-05-13T06:45:28;16.20;67.10
18648;DHT22;9453;50.294;18.644;2023-05-13T06:47:55;16.20;67.00
18648;DHT22;9453;50.294;18.644;2023-05-13T06:50:22;16.20;66.90
18648;DHT22;9453;50.294;18.644;2023-05-13T06:52:51;16.20;66.50
18648;DHT22;9453;50.294;18.644;2023-05-13T06:55:18;16.20;66.70
18648;DHT22;9453;50.294;18.644;2023-05-13T06:57:45;16.10;66.80
18648;DHT22;9453;50.294;18.644;2023-05-13T07:00:12;16.20;67.10
18648;DHT22;9453;50.294;18.644;2023-05-13T07:02:40;16.10;66.10
18648;DHT22;9453;50.294;18.644;2023-05-13T07:05:07;16.10;65.40
18648;DHT22;9453;50.294;18.644;2023-05-13T07:07:35;16.10;65.10
18648;DHT22;9453;50.294;18.644;2023-05-13T07:10:04;16.10;64.40
18648;DHT22;9453;50.294;18.644;2023-05-13T07:12:32;16.10;64.40
18648;DHT22;9453;50.294;18.644;2023-05-13T07:14:59;16.10;63.70
18648;DHT22;9453;50.294;18.644;2023-05-13T07:17:26;16.20;63.50
18648;DHT22;9453;50.294;18.644;2023-05-13T07:19:53;16.20;63.40
18648;DHT22;9453;50.294;18.644;2023-05-13T07:22:21;16.30;64.20
18648;DHT22;9453;50.294;18.644;2023-05-13T07:24:48;16.40;63.60
18648;DHT22;9453;50.294;18.644;2023-05-13T07:27:16;16.50;62.80
18648;DHT22;9453;50.294;18.644;2023-05-13T07:29:43;16.60;62.60
18648;DHT22;9453;50.294;18.644;2023-05-13T07:32:11;16.70;62.20
18648;DHT22;9453;50.294;18.644;2023-05-13T07:34:38;16.80;62.40
18648;DHT22;9453;50.294;18.644;2023-05-13T07:37:05;16.80;61.60
18648;DHT22;9453;50.294;18.644;2023-05-13T07:39:32;17.00;61.10
18648;DHT22;9453;50.294;18.644;2023-05-13T07:42:03;17.00;60.60
18648;DHT22;9453;50.294;18.644;2023-05-13T07:44:35;17.10;59.90
18648;DHT22;9453;50.294;18.644;2023-05-13T07:47:02;17.20;59.90
18648;DHT22;9453;50.294;18.644;2023-05-13T07:49:28;17.30;59.40
18648;DHT22;9453;50.294;18.644;2023-05-13T07:51:58;17.40;58.80
18648;DHT22;9453;50.294;18.644;2023-05-13T07:54:25;17.40;58.30
18648;DHT22;9453;50.294;18.644;2023-05-13T07:56:52;17.40;58.20
18648;DHT22;9453;50.294;18.644;2023-05-13T07:59:19;17.60;58.40
18648;DHT22;9453;50.294;18.644;2023-05-13T08:01:48;17.60;58.40
18648;DHT22;9453;50.294;18.644;2023-05-13T08:04:15;17.70;58.00
18648;DHT22;9453;50.294;18.644;2023-05-13T08:06:42;17.70;57.40
18648;DHT22;9453;50.294;18.644;2023-05-13T08:09:09;17.60;57.20
18648;DHT22;9453;50.294;18.644;2023-05-13T08:11:37;17.70;58.10
18648;DHT22;9453;50.294;18.644;2023-05-13T08:14:04;17.80;58.60
18648;DHT22;9453;50.294;18.644;2023-05-13T08:16:33;17.70;58.30
18648;DHT22;9453;50.294;18.644;2023-05-13T08:19:02;17.60;58.20
18648;DHT22;9453;50.294;18.644;2023-05-13T08:21:29;17.50;57.60
18648;DHT22;9453;50.294;18.644;2023-05-13T08:23:57;17.60;56.80
18648;DHT22;9453;50.294;18.644;2023-05-13T08:26:24;17.70;56.80
18648;DHT22;9453;50.294;18.644;2023-05-13T08:28:51;17.80;56.60
18648;DHT22;9453;50.294;18.644;2023-05-13T08:31:18;18.00;55.90
18648;DHT22;9453;50.294;18.644;2023-05-13T08:33:45;18.00;55.00
18648;DHT22;9453;50.294;18.644;2023-05-13T08:36:14;18.00;55.20
18648;DHT22;9453;50.294;18.644;2023-05-13T08:38:41;18.00;55.40
18648;DHT22;9453;50.294;18.644;2023-05-13T08:41:11;18.00;55.60
18648;DHT22;9453;50.294;18.644;2023-05-13T08:43:39;18.10;55.60
18648;DHT22;9453;50.294;18.644;2023-05-13T08:46:08;18.10;55.40
18648;DHT22;9453;50.294;18.644;2023-05-13T08:48:37;18.20;55.10
18648;DHT22;9453;50.294;18.644;2023-05-13T08:51:04;18.20;55.40
18648;DHT22;9453;50.294;18.644;2023-05-13T08:53:33;18.40;55.30
18648;DHT22;9453;50.294;18.644;2023-05-13T08:56:01;18.40;55.20
18648;DHT22;9453;50.294;18.644;2023-05-13T08:58:28;18.40;55.40
18648;DHT22;9453;50.294;18.644;2023-05-13T09:00:57;18.40;55.30
18648;DHT22;9453;50.294;18.644;2023-05-13T09:03:26;18.30;55.60
18648;DHT22;9453;50.294;18.644;2023-05-13T09:05:53;18.20;55.60
18648;DHT22;9453;50.294;18.644;2023-05-13T09:08:20;18.30;55.50
18648;DHT22;9453;50.294;18.644;2023-05-13T09:10:49;18.30;55.20
18648;DHT22;9453;50.294;18.644;2023-05-13T09:13:17;18.40;55.10
18648;DHT22;9453;50.294;18.644;2023-05-13T09:15:44;18.40;55.20
18648;DHT22;9453;50.294;18.644;2023-05-13T09:18:15;18.50;55.30
18648;DHT22;9453;50.294;18.644;2023-05-13T09:20:42;18.40;55.00
18648;DHT22;9453;50.294;18.644;2023-05-13T09:23:09;18.40;54.40
18648;DHT22;9453;50.294;18.644;2023-05-13T09:25:37;18.40;54.60
18648;DHT22;9453;50.294;18.644;2023-05-13T09:28:06;18.30;54.80
18648;DHT22;9453;50.294;18.644;2023-05-13T09:30:42;18.30;55.00
18648;DHT22;9453;50.294;18.644;2023-05-13T09:33:29;18.30;55.20
18648;DHT22;9453;50.294;18.644;2023-05-13T09:35:57;18.40;55.10
18648;DHT22;9453;50.294;18.644;2023-05-13T09:38:25;18.50;55.10
18648;DHT22;9453;50.294;18.644;2023-05-13T09:40:53;18.60;55.30
18648;DHT22;9453;50.294;18.644;2023-05-13T09:43:24;18.70;55.10
18648;DHT22;9453;50.294;18.644;2023-05-13T09:45:53;18.80;54.90
18648;DHT22;9453;50.294;18.644;2023-05-13T09:48:20;19.00;53.90
18648;DHT22;9453;50.294;18.644;2023-05-13T09:50:48;19.10;52.90
18648;DHT22;9453;50.294;18.644;2023-05-13T09:53:16;19.10;51.10
18648;DHT22;9453;50.294;18.644;2023-05-13T09:55:45;19.30;51.00
18648;DHT22;9453;50.294;18.644;2023-05-13T09:58:12;19.30;50.20
18648;DHT22;9453;50.294;18.644;2023-05-13T10:00:42;19.50;50.20
18648;DHT22;9453;50.294;18.644;2023-05-13T10:03:10;19.70;50.60
18648;DHT22;9453;50.294;18.644;2023-05-13T10:05:37;19.80;50.90
18648;DHT22;9453;50.294;18.644;2023-05-13T10:08:07;19.90;50.30
18648;DHT22;9453;50.294;18.644;2023-05-13T10:10:35;20.00;49.80
18648;DHT22;9453;50.294;18.644;2023-05-13T10:13:04;20.10;49.80
18648;DHT22;9453;50.294;18.644;2023-05-13T10:15:31;20.00;49.60
18648;DHT22;9453;50.294;18.644;2023-05-13T10:18:00;20.00;49.70
18648;DHT22;9453;50.294;18.644;2023-05-13T10:20:27;20.10;50.10
18648;DHT22;9453;50.294;18.644;2023-05-13T10:22:55;20.20;49.00
18648;DHT22;9453;50.294;18.644;2023-05-13T10:25:23;20.30;48.60
18648;DHT22;9453;50.294;18.644;2023-05-13T10:27:52;20.40;48.30
18648;DHT22;9453;50.294;18.644;2023-05-13T10:30:21;20.60;48.30
18648;DHT22;9453;50.294;18.644;2023-05-13T10:32:51;20.70;47.80
18648;DHT22;9453;50.294;18.644;2023-05-13T10:35:21;21.00;46.80
18648;DHT22;9453;50.294;18.644;2023-05-13T10:37:55;21.10;45.20
18648;DHT22;9453;50.294;18.644;2023-05-13T10:40:32;21.20;45.30
18648;DHT22;9453;50.294;18.644;2023-05-13T10:43:12;21.20;44.10
18648;DHT22;9453;50.294;18.644;2023-05-13T10:45:44;21.20;44.50
18648;DHT22;9453;50.294;18.644;2023-05-13T10:48:12;21.20;44.20
18648;DHT22;9453;50.294;18.644;2023-05-13T10:50:49;21.20;44.80
18648;DHT22;9453;50.294;18.644;2023-05-13T10:53:22;21.20;43.90
18648;DHT22;9453;50.294;18.644;2023-05-13T10:55:55;21.30;44.10
18648;DHT22;9453;50.294;18.644;2023-05-13T10:58:28;21.40;44.30
18648;DHT22;9453;50.294;18.644;2023-05-13T11:01:11;21.60;44.40
18648;DHT22;9453;50.294;18.644;2023-05-13T11:03:39;21.40;42.90
18648;DHT22;9453;50.294;18.644;2023-05-13T11:06:18;21.30;42.40
18648;DHT22;9453;50.294;18.644;2023-05-13T11:08:46;21.30;42.60
18648;DHT22;9453;50.294;18.644;2023-05-13T11:14:14;21.50;43.20
18648;DHT22;9453;50.294;18.644;2023-05-13T11:16:47;21.70;43.10
18648;DHT22;9453;50.294;18.644;2023-05-13T11:19:22;22.00;43.30
18648;DHT22;9453;50.294;18.644;2023-05-13T11:21:54;22.00;43.80
18648;DHT22;9453;50.294;18.644;2023-05-13T11:24:22;22.00;43.50
18648;DHT22;9453;50.294;18.644;2023-05-13T11:26:51;21.90;43.50
18648;DHT22;9453;50.294;18.644;2023-05-13T11:29:29;21.70;43.30
18648;DHT22;9453;50.294;18.644;2023-05-13T11:31:57;21.70;43.70
18648;DHT22;9453;50.294;18.644;2023-05-13T11:34:24;21.80;43.70
18648;DHT22;9453;50.294;18.644;2023-05-13T11:36:56;21.90;42.90
18648;DHT22;9453;50.294;18.644;2023-05-13T11:39:24;22.10;43.40
18648;DHT22;9453;50.294;18.644;2023-05-13T11:41:53;22.10;42.80
18648;DHT22;9453;50.294;18.644;2023-05-13T11:44:24;21.90;42.50
18648;DHT22;9453;50.294;18.644;2023-05-13T11:46:52;21.60;42.50
18648;DHT22;9453;50.294;18.644;2023-05-13T11:49:33;21.40;42.80
18648;DHT22;9453;50.294;18.644;2023-05-13T11:52:03;21.20;43.80
18648;DHT22;9453;50.294;18.644;2023-05-13T11:54:30;21.00;43.90
18648;DHT22;9453;50.294;18.644;2023-05-13T11:56:57;20.90;44.60
18648;DHT22;9453;50.294;18.644;2023-05-13T11:59:24;20.80;44.70
18648;DHT22;9453;50.294;18.644;2023-05-13T12:01:58;21.10;45.10
18648;DHT22;9453;50.294;18.644;2023-05-13T12:04:27;21.10;44.30
18648;DHT22;9453;50.294;18.644;2023-05-13T12:06:55;21.30;44.20
18648;DHT22;9453;50.294;18.644;2023-05-13T12:09:24;21.50;44.40
18648;DHT22;9453;50.294;18.644;2023-05-13T12:11:51;21.50;43.50
18648;DHT22;9453;50.294;18.644;2023-05-13T12:14:19;21.50;43.50
18648;DHT22;9453;50.294;18.644;2023-05-13T12:16:47;21.50;43.70
18648;DHT22;9453;50.294;18.644;2023-05-13T12:19:14;21.70;43.70
18648;DHT22;9453;50.294;18.644;2023-05-13T12:21:41;21.60;43.50
18648;DHT22;9453;50.294;18.644;2023-05-13T12:24:18;21.60;44.40
18648;DHT22;9453;50.294;18.644;2023-05-13T12:26:47;21.80;44.80
18648;DHT22;9453;50.294;18.644;2023-05-13T12:29:14;21.90;44.00
18648;DHT22;9453;50.294;18.644;2023-05-13T12:31:42;22.00;43.40
18648;DHT22;9453;50.294;18.644;2023-05-13T12:34:31;22.00;43.80
18648;DHT22;9453;50.294;18.644;2023-05-13T12:37:08;22.10;43.90
18648;DHT22;9453;50.294;18.644;2023-05-13T12:39:35;22.20;43.70
18648;DHT22;9453;50.294;18.644;2023-05-13T12:42:04;22.20;43.20
18648;DHT22;9453;50.294;18.644;2023-05-13T12:44:31;22.00;43.30
18648;DHT22;9453;50.294;18.644;2023-05-13T12:46:58;22.00;44.10
18648;DHT22;9453;50.294;18.644;2023-05-13T12:49:26;22.00;43.90
18648;DHT22;9453;50.294;18.644;2023-05-13T12:51:53;21.90;43.50
18648;DHT22;9453;50.294;18.644;2023-05-13T12:54:21;21.80;43.40
18648;DHT22;9453;50.294;18.644;2023-05-13T12:56:48;21.70;44.30
18648;DHT22;9453;50.294;18.644;2023-05-13T12:59:17;21.50;44.30
18648;DHT22;9453;50.294;18.644;2023-05-13T13:01:44;21.30;44.60
18648;DHT22;9453;50.294;18.644;2023-05-13T13:04:12;21.20;45.00
18648;DHT22;9453;50.294;18.644;2023-05-13T13:06:41;21.30;45.30
18648;DHT22;9453;50.294;18.644;2023-05-13T13:09:08;21.50;45.10
18648;DHT22;9453;50.294;18.644;2023-05-13T13:11:35;21.50;45.30
18648;DHT22;9453;50.294;18.644;2023-05-13T13:14:03;21.50;45.50
18648;DHT22;9453;50.294;18.644;2023-05-13T13:16:32;21.30;45.40
18648;DHT22;9453;50.294;18.644;2023-05-13T13:18:59;21.20;45.30
18648;DHT22;9453;50.294;18.644;2023-05-13T13:21:26;21.00;45.60
18648;DHT22;9453;50.294;18.644;2023-05-13T13:23:53;20.80;45.60
18648;DHT22;9453;50.294;18.644;2023-05-13T13:26:20;20.50;45.60
18648;DHT22;9453;50.294;18.644;2023-05-13T13:28:48;20.20;45.90
18648;DHT22;9453;50.294;18.644;2023-05-13T13:31:15;20.10;46.80
18648;DHT22;9453;50.294;18.644;2023-05-13T13:33:43;20.10;47.00
18648;DHT22;9453;50.294;18.644;2023-05-13T13:36:10;20.10;47.00
18648;DHT22;9453;50.294;18.644;2023-05-13T13:38:37;20.10;47.20
18648;DHT22;9453;50.294;18.644;2023-05-13T13:41:04;20.00;47.40
18648;DHT22;9453;50.294;18.644;2023-05-13T13:43:31;20.10;47.80
18648;DHT22;9453;50.294;18.644;2023-05-13T13:45:58;20.10;47.70
18648;DHT22;9453;50.294;18.644;2023-05-13T13:48:25;20.00;48.20
18648;DHT22;9453;50.294;18.644;2023-05-13T13:50:53;20.00;48.30
18648;DHT22;9453;50.294;18.644;2023-05-13T13:53:21;19.90;48.20
18648;DHT22;9453;50.294;18.644;2023-05-13T13:55:48;19.70;48.10
18648;DHT22;9453;50.294;18.644;2023-05-13T13:58:15;19.70;48.30
18648;DHT22;9453;50.294;18.644;2023-05-13T14:00:52;19.60;48.90
18648;DHT22;9453;50.294;18.644;2023-05-13T14:03:19;19.50;49.50
18648;DHT22;9453;50.294;18.644;2023-05-13T14:06:13;19.40;50.00
18648;DHT22;9453;50.294;18.644;2023-05-13T14:08:40;19.30;49.40
18648;DHT22;9453;50.294;18.644;2023-05-13T14:11:11;19.30;49.50
18648;DHT22;9453;50.294;18.644;2023-05-13T14:13:41;19.40;50.20
18648;DHT22;9453;50.294;18.644;2023-05-13T14:18:33;19.20;49.60
18648;DHT22;9453;50.294;18.644;2023-05-13T14:21:05;19.20;49.90
18648;DHT22;9453;50.294;18.644;2023-05-13T14:23:32;19.10;49.90
18648;DHT22;9453;50.294;18.644;2023-05-13T14:26:00;19.00;50.30
18648;DHT22;9453;50.294;18.644;2023-05-13T14:28:28;18.80;50.40
18648;DHT22;9453;50.294;18.644;2023-05-13T14:30:56;18.80;50.80
18648;DHT22;9453;50.294;18.644;2023-05-13T14:33:23;18.80;51.10
18648;DHT22;9453;50.294;18.644;2023-05-13T14:35:50;18.80;51.00
18648;DHT22;9453;50.294;18.644;2023-05-13T14:38:19;18.70;51.00
18648;DHT22;9453;50.294;18.644;2023-05-13T14:40:46;18.60;50.90
18648;DHT22;9453;50.294;18.644;2023-05-13T14:43:16;18.50;50.40
18648;DHT22;9453;50.294;18.644;2023-05-13T14:45:44;18.50;50.90
18648;DHT22;9453;50.294;18.644;2023-05-13T14:48:10;18.50;51.30
18648;DHT22;9453;50.294;18.644;2023-05-13T14:50:37;18.50;51.60
18648;DHT22;9453;50.294;18.644;2023-05-13T14:53:04;18.50;51.60
18648;DHT22;9453;50.294;18.644;2023-05-13T14:55:33;18.70;51.70
18648;DHT22;9453;50.294;18.644;2023-05-13T14:58:00;18.80;51.10
18648;DHT22;9453;50.294;18.644;2023-05-13T15:00:31;18.80;50.80
18648;DHT22;9453;50.294;18.644;2023-05-13T15:02:58;19.00;50.80
18648;DHT22;9453;50.294;18.644;2023-05-13T15:05:25;19.20;50.00
18648;DHT22;9453;50.294;18.644;2023-05-13T15:07:52;19.30;49.60
18648;DHT22;9453;50.294;18.644;2023-05-13T15:10:19;19.40;49.10
18648;DHT22;9453;50.294;18.644;2023-05-13T15:12:47;19.40;49.30
18648;DHT22;9453;50.294;18.644;2023-05-13T15:15:14;19.50;49.50
18648;DHT22;9453;50.294;18.644;2023-05-13T15:17:41;19.50;49.40
18648;DHT22;9453;50.294;18.644;2023-05-13T15:20:09;19.60;49.40
18648;DHT22;9453;50.294;18.644;2023-05-13T15:22:36;19.60;49.20
18648;DHT22;9453;50.294;18.644;2023-05-13T15:25:04;19.60;48.80
18648;DHT22;9453;50.294;18.644;2023-05-13T15:27:31;19.70;49.20
18648;DHT22;9453;50.294;18.644;2023-05-13T15:30:02;19.70;49.10
18648;DHT22;9453;50.294;18.644;2023-05-13T15:32:29;19.70;49.30
18648;DHT22;9453;50.294;18.644;2023-05-13T15:34:55;19.70;48.60
18648;DHT22;9453;50.294;18.644;2023-05-13T15:37:23;19.50;49.20
18648;DHT22;9453;50.294;18.644;2023-05-13T15:39:50;19.40;49.50
18648;DHT22;9453;50.294;18.644;2023-05-13T15:42:17;19.30;49.80
18648;DHT22;9453;50.294;18.644;2023-05-13T15:44:44;19.30;49.60
18648;DHT22;9453;50.294;18.644;2023-05-13T15:47:12;19.20;49.90
18648;DHT22;9453;50.294;18.644;2023-05-13T15:49:40;19.20;50.00
18648;DHT22;9453;50.294;18.644;2023-05-13T15:52:07;19.10;49.90
18648;DHT22;9453;50.294;18.644;2023-05-13T15:54:34;19.10;50.50
18648;DHT22;9453;50.294;18.644;2023-05-13T15:57:01;18.90;50.10
18648;DHT22;9453;50.294;18.644;2023-05-13T15:59:28;18.90;50.50
18648;DHT22;9453;50.294;18.644;2023-05-13T16:01:55;18.80;50.60
18648;DHT22;9453;50.294;18.644;2023-05-13T16:04:23;18.80;51.10
18648;DHT22;9453;50.294;18.644;2023-05-13T16:06:50;18.80;51.40
18648;DHT22;9453;50.294;18.644;2023-05-13T18:29:52;15.20;57.10
18648;DHT22;9453;50.294;18.644;2023-05-13T18:32:20;15.20;57.30
18648;DHT22;9453;50.294;18.644;2023-05-13T18:34:47;15.10;57.70
18648;DHT22;9453;50.294;18.644;2023-05-13T18:37:23;15.00;58.60
18648;DHT22;9453;50.294;18.644;2023-05-13T18:39:53;14.90;57.90
18648;DHT22;9453;50.294;18.644;2023-05-13T18:42:26;14.80;58.20
18648;DHT22;9453;50.294;18.644;2023-05-13T18:45:13;14.70;58.20
18648;DHT22;9453;50.294;18.644;2023-05-13T18:47:40;13.70;57.90
18648;DHT22;9453;50.294;18.644;2023-05-13T18:50:08;14.70;59.20
18648;DHT22;9453;50.294;18.644;2023-05-13T18:52:47;14.60;59.50
18648;DHT22;9453;50.294;18.644;2023-05-13T18:55:14;14.50;59.50
18648;DHT22;9453;50.294;18.644;2023-05-13T18:57:41;14.50;59.90
18648;DHT22;9453;50.294;18.644;2023-05-13T19:00:11;14.40;60.10
18648;DHT22;9453;50.294;18.644;2023-05-13T19:02:38;14.30;60.20
18648;DHT22;9453;50.294;18.644;2023-05-13T19:05:06;14.30;60.50
18648;DHT22;9453;50.294;18.644;2023-05-13T19:07:33;14.20;60.80
18648;DHT22;9453;50.294;18.644;2023-05-13T19:10:00;14.10;61.40
18648;DHT22;9453;50.294;18.644;2023-05-13T19:12:27;14.00;61.70
18648;DHT22;9453;50.294;18.644;2023-05-13T19:14:54;14.00;61.70
18648;DHT22;9453;50.294;18.644;2023-05-13T19:17:22;13.90;62.00
18648;DHT22;9453;50.294;18.644;2023-05-13T19:19:49;13.90;62.00
18648;DHT22;9453;50.294;18.644;2023-05-13T19:22:16;13.80;62.40
18648;DHT22;9453;50.294;18.644;2023-05-13T19:24:43;13.80;62.70
18648;DHT22;9453;50.294;18.644;2023-05-13T19:27:11;13.70;62.90
18648;DHT22;9453;50.294;18.644;2023-05-13T19:29:38;13.70;63.00
18648;DHT22;9453;50.294;18.644;2023-05-13T19:32:05;13.60;63.30
18648;DHT22;9453;50.294;18.644;2023-05-13T19:34:34;13.50;63.50
18648;DHT22;9453;50.294;18.644;2023-05-13T19:37:01;13.50;64.10
18648;DHT22;9453;50.294;18.644;2023-05-13T19:39:29;13.50;64.50
18648;DHT22;9453;50.294;18.644;2023-05-13T19:41:56;13.40;64.90
18648;DHT22;9453;50.294;18.644;2023-05-13T19:44:23;13.40;65.00
18648;DHT22;9453;50.294;18.644;2023-05-13T19:46:52;13.30;64.90
18648;DHT22;9453;50.294;18.644;2023-05-13T19:49:19;13.30;65.10
18648;DHT22;9453;50.294;18.644;2023-05-13T19:51:48;13.20;65.60
18648;DHT22;9453;50.294;18.644;2023-05-13T19:54:15;13.20;65.90
18648;DHT22;9453;50.294;18.644;2023-05-13T19:56:48;13.10;66.10
18648;DHT22;9453;50.294;18.644;2023-05-13T19:59:15;13.10;66.50
18648;DHT22;9453;50.294;18.644;2023-05-13T20:01:42;13.00;66.50
18648;DHT22;9453;50.294;18.644;2023-05-13T20:04:09;13.00;66.80
18648;DHT22;9453;50.294;18.644;2023-05-13T20:06:36;12.90;67.00
18648;DHT22;9453;50.294;18.644;2023-05-13T20:09:05;12.90;67.20
18648;DHT22;9453;50.294;18.644;2023-05-13T20:11:33;12.90;67.40
18648;DHT22;9453;50.294;18.644;2023-05-13T20:14:12;12.80;67.60
18648;DHT22;9453;50.294;18.644;2023-05-13T20:16:40;12.80;67.90
18648;DHT22;9453;50.294;18.644;2023-05-13T20:19:07;12.70;68.20
18648;DHT22;9453;50.294;18.644;2023-05-13T20:21:37;12.70;68.30
18648;DHT22;9453;50.294;18.644;2023-05-13T20:24:06;12.70;68.50
18648;DHT22;9453;50.294;18.644;2023-05-13T20:26:33;12.70;68.60
18648;DHT22;9453;50.294;18.644;2023-05-13T20:29:00;12.70;68.70
18648;DHT22;9453;50.294;18.644;2023-05-13T20:31:27;12.60;68.70
18648;DHT22;9453;50.294;18.644;2023-05-13T20:33:54;12.60;69.10
18648;DHT22;9453;50.294;18.644;2023-05-13T20:36:22;12.60;69.40
18648;DHT22;9453;50.294;18.644;2023-05-13T20:38:49;12.60;69.60
18648;DHT22;9453;50.294;18.644;2023-05-13T20:41:17;12.60;69.60
18648;DHT22;9453;50.294;18.644;2023-05-13T20:43:46;12.60;87.90
18648;DHT22;9453;50.294;18.644;2023-05-13T20:46:13;12.60;69.60
18648;DHT22;9453;50.294;18.644;2023-05-13T20:48:41;12.60;69.90
18648;DHT22;9453;50.294;18.644;2023-05-13T20:51:08;12.50;70.00
18648;DHT22;9453;50.294;18.644;2023-05-13T20:53:36;12.50;70.30
18648;DHT22;9453;50.294;18.644;2023-05-13T20:56:03;12.50;70.50
18648;DHT22;9453;50.294;18.644;2023-05-13T20:58:32;12.40;70.60
18648;DHT22;9453;50.294;18.644;2023-05-13T21:01:02;12.40;70.80
18648;DHT22;9453;50.294;18.644;2023-05-13T21:03:29;12.40;71.40
18648;DHT22;9453;50.294;18.644;2023-05-13T21:05:56;12.40;71.60
18648;DHT22;9453;50.294;18.644;2023-05-13T21:08:23;12.40;71.60
18648;DHT22;9453;50.294;18.644;2023-05-13T21:10:50;12.40;71.70
18648;DHT22;9453;50.294;18.644;2023-05-13T21:13:26;12.40;71.60
18648;DHT22;9453;50.294;18.644;2023-05-13T21:15:58;12.40;71.50
18648;DHT22;9453;50.294;18.644;2023-05-13T21:18:25;12.30;71.40
18648;DHT22;9453;50.294;18.644;2023-05-13T21:20:52;12.30;71.60
18648;DHT22;9453;50.294;18.644;2023-05-13T21:23:19;12.30;71.70
18648;DHT22;9453;50.294;18.644;2023-05-13T21:25:46;12.20;71.80
18648;DHT22;9453;50.294;18.644;2023-05-13T21:28:13;12.20;72.10
18648;DHT22;9453;50.294;18.644;2023-05-13T21:30:41;12.20;72.40
18648;DHT22;9453;50.294;18.644;2023-05-13T21:33:09;12.20;72.60
18648;DHT22;9453;50.294;18.644;2023-05-13T21:35:37;12.20;72.60
18648;DHT22;9453;50.294;18.644;2023-05-13T21:38:03;12.10;72.50
18648;DHT22;9453;50.294;18.644;2023-05-13T21:40:30;12.10;72.70
18648;DHT22;9453;50.294;18.644;2023-05-13T21:42:57;12.10;73.10
18648;DHT22;9453;50.294;18.644;2023-05-13T21:45:24;12.10;73.30
18648;DHT22;9453;50.294;18.644;2023-05-13T21:47:51;12.00;74.50
18648;DHT22;9453;50.294;18.644;2023-05-13T21:50:20;11.90;74.40
18648;DHT22;9453;50.294;18.644;2023-05-13T21:52:47;11.80;74.40
18648;DHT22;9453;50.294;18.644;2023-05-13T21:55:14;11.80;74.40
18648;DHT22;9453;50.294;18.644;2023-05-13T21:57:42;11.70;74.60
18648;DHT22;9453;50.294;18.644;2023-05-13T22:00:09;11.70;75.10
18648;DHT22;9453;50.294;18.644;2023-05-13T22:02:39;11.60;76.00